createdAt,value
2023-04-15T00:02:03.609Z,48.90
2023-04-15T00:04:37.618Z,44.25
2023-04-15T00:07:18.421Z,46.25
2023-04-15T00:09:56.307Z,42.92
2023-04-15T00:12:33.229Z,42.85
2023-04-15T00:15:15.624Z,39.92
2023-04-15T00:17:56.955Z,36.78
2023-04-15T00:20:35.462Z,37.78
2023-04-15T00:23:13.944Z,37.42
2023-04-15T00:25:54.695Z,37.72
2023-04-15T00:28:32.936Z,33.83
2023-04-15T00:31:11.282Z,36.88
2023-04-15T00:33:45.142Z,33.95
2023-04-15T00:36:20.603Z,33.03
2023-04-15T00:39:04.048Z,32.85
2023-04-15T00:41:44.772Z,32.75
2023-04-15T00:44:21.919Z,35.42
2023-04-15T00:46:57.896Z,34.85
2023-04-15T00:49:40.074Z,37.28
2023-04-15T00:52:18.953Z,35.53
2023-04-15T00:54:54.246Z,42.03
2023-04-15T00:57:31.991Z,39.83
2023-04-15T01:00:08.149Z,39.28
2023-04-15T01:02:48.806Z,45.78
2023-04-15T01:05:19.739Z,44.83
2023-04-15T01:08:00.688Z,42.95
2023-04-15T01:10:42.376Z,41.42
2023-04-15T01:13:22.553Z,42.60
2023-04-15T01:15:57.026Z,42.85
2023-04-15T01:18:35.980Z,38.55
2023-04-15T01:21:14.765Z,38.45
2023-04-15T01:23:53.569Z,36.15
2023-04-15T01:26:29.046Z,33.90
2023-04-15T01:29:03.791Z,32.80
2023-04-15T01:31:50.316Z,33.78
2023-04-15T01:34:26.203Z,30.48
2023-04-15T01:37:09.892Z,28.38
2023-04-15T01:39:45.337Z,32.40
2023-04-15T01:42:23.050Z,30.23
2023-04-15T01:45:00.720Z,27.30
2023-04-15T01:47:43.050Z,30.67
2023-04-15T01:50:24.054Z,29.38
2023-04-15T01:53:07.936Z,25.30
2023-04-15T01:58:27.121Z,25.92
2023-04-15T02:01:00.412Z,27.90
2023-04-15T02:03:35.148Z,31.27
2023-04-15T02:06:10.550Z,30.88
2023-04-15T02:08:49.020Z,32.70
2023-04-15T02:11:26.350Z,31.05
2023-04-15T02:14:01.673Z,34.67
2023-04-15T02:16:42.434Z,36.63
2023-04-15T02:19:20.910Z,34.92
2023-04-15T02:22:01.682Z,32.08
2023-04-15T02:24:31.371Z,33.67
2023-04-15T02:27:14.635Z,33.15
2023-04-15T02:29:55.121Z,35.70
2023-04-15T02:32:38.465Z,37.03
2023-04-15T02:35:16.778Z,37.42
2023-04-15T02:37:57.657Z,37.03
2023-04-15T02:40:38.965Z,40.15
2023-04-15T02:43:18.328Z,37.75
2023-04-15T02:45:56.146Z,44.60
2023-04-15T02:48:33.953Z,45.05
2023-04-15T02:51:20.459Z,42.58
2023-04-15T02:54:06.298Z,39.50
2023-04-15T02:56:48.024Z,41.38
2023-04-15T02:59:20.154Z,42.92
2023-04-15T03:01:55.325Z,43.78
2023-04-15T03:04:30.251Z,44.28
2023-04-15T03:07:06.477Z,45.03
2023-04-15T03:09:47.987Z,44.22
2023-04-15T03:12:26.267Z,41.80
2023-04-15T03:15:07.004Z,41.42
2023-04-15T03:17:55.649Z,44.13
2023-04-15T03:20:36.358Z,43.30
2023-04-15T03:23:14.618Z,43.55
2023-04-15T03:25:58.997Z,45.10
2023-04-15T03:28:39.474Z,47.35
2023-04-15T03:31:20.075Z,45.53
2023-04-15T03:33:57.935Z,44.20
2023-04-15T03:36:43.227Z,41.70
2023-04-15T03:39:18.470Z,48.05
2023-04-15T03:41:56.474Z,51.55
2023-04-15T03:44:37.944Z,58.78
2023-04-15T03:47:19.376Z,63.10
2023-04-15T03:49:48.916Z,57.72
2023-04-15T03:52:27.291Z,58.95
2023-04-15T03:55:05.060Z,54.95
2023-04-15T03:57:46.679Z,59.25
2023-04-15T04:00:22.944Z,58.65
2023-04-15T04:03:01.340Z,60.35
2023-04-15T04:05:45.470Z,60.55
2023-04-15T04:08:24.783Z,61.50
2023-04-15T04:11:06.088Z,53.22
2023-04-15T04:13:44.664Z,57.15
2023-04-15T04:16:22.463Z,57.70
2023-04-15T04:19:06.415Z,52.50
2023-04-15T04:24:31.654Z,43.92
2023-04-15T04:27:16.200Z,46.15
2023-04-15T04:30:00.316Z,50.42
2023-04-15T04:32:35.896Z,55.47
2023-04-15T04:35:13.977Z,50.40
2023-04-15T04:37:54.537Z,51.47
2023-04-15T04:40:35.312Z,50.53
2023-04-15T04:43:16.008Z,48.63
2023-04-15T04:45:59.959Z,54.45
2023-04-15T04:51:18.637Z,54.83
2023-04-15T04:53:57.376Z,56.35
2023-04-15T04:56:40.005Z,61.58
2023-04-15T04:59:20.132Z,61.95
2023-04-15T05:02:03.528Z,60.50
2023-04-15T05:04:41.828Z,67.75
2023-04-15T05:07:27.076Z,68.38
2023-04-15T05:10:15.912Z,69.32
2023-04-15T05:12:58.636Z,69.65
2023-04-15T05:15:35.266Z,49.83
2023-04-15T05:18:13.576Z,40.53
2023-04-15T05:20:51.945Z,32.22
2023-04-15T05:23:24.206Z,30.95
2023-04-15T05:26:10.218Z,33.10
2023-04-15T05:28:42.992Z,33.30
2023-04-15T05:31:23.277Z,31.88
2023-04-15T05:34:11.777Z,34.67
2023-04-15T05:36:50.894Z,33.58
2023-04-15T05:39:32.741Z,32.78
2023-04-15T05:42:14.426Z,36.65
2023-04-15T05:44:58.160Z,35.17
2023-04-15T05:47:31.137Z,38.22
2023-04-15T05:50:14.685Z,36.08
2023-04-15T05:52:56.921Z,34.83
2023-04-15T05:55:38.412Z,32.53
2023-04-15T05:58:19.675Z,30.85
2023-04-15T06:00:57.422Z,30.65
2023-04-15T06:03:43.132Z,29.25
2023-04-15T06:06:21.112Z,30.77
2023-04-15T06:09:00.790Z,32.17
2023-04-15T06:11:44.212Z,35.42
2023-04-15T06:14:17.070Z,35.88
2023-04-15T06:16:58.893Z,35.70
2023-04-15T06:19:36.674Z,34.35
2023-04-15T06:22:09.578Z,33.55
2023-04-15T06:24:44.826Z,30.38
2023-04-15T06:27:23.204Z,41.35
2023-04-15T06:30:00.913Z,29.30
2023-04-15T06:32:37.003Z,29.08
2023-04-15T06:35:17.688Z,21.30
2023-04-15T06:37:55.573Z,24.60
2023-04-15T06:40:31.730Z,24.17
2023-04-15T06:43:10.431Z,24.48
2023-04-15T06:45:45.580Z,18.27
2023-04-15T06:48:28.357Z,15.23
2023-04-15T06:50:59.050Z,15.52
2023-04-15T06:53:30.901Z,14.48
2023-04-15T06:56:08.806Z,14.27
2023-04-15T06:58:48.948Z,16.10
2023-04-15T07:01:28.936Z,15.35
2023-04-15T07:04:09.516Z,17.35
2023-04-15T07:06:53.372Z,13.48
2023-04-15T07:09:31.260Z,11.63
2023-04-15T07:12:10.564Z,12.90
2023-04-15T07:14:44.850Z,11.98
2023-04-15T07:17:20.271Z,11.88
2023-04-15T07:20:00.207Z,11.05
2023-04-15T07:22:43.524Z,11.50
2023-04-15T07:25:16.148Z,9.57
2023-04-15T07:27:54.594Z,12.10
2023-04-15T07:30:29.275Z,10.93
2023-04-15T07:33:05.257Z,10.18
2023-04-15T07:35:48.977Z,9.15
2023-04-15T07:38:32.291Z,7.88
2023-04-15T07:41:16.188Z,7.80
2023-04-15T07:43:56.801Z,7.55
2023-04-15T07:46:32.333Z,6.47
2023-04-15T07:49:13.627Z,6.97
2023-04-15T07:51:54.129Z,7.30
2023-04-15T07:54:46.699Z,7.15
2023-04-15T07:57:24.813Z,7.43
2023-04-15T08:00:07.859Z,7.57
2023-04-15T08:02:51.555Z,6.20
2023-04-15T08:05:29.761Z,5.68
2023-04-15T08:08:07.262Z,5.50
2023-04-15T08:10:52.502Z,5.30
2023-04-15T08:13:36.902Z,5.07
2023-04-15T08:16:31.202Z,4.90
2023-04-15T08:21:48.653Z,4.45
2023-04-15T08:24:41.264Z,5.53
2023-04-15T08:27:19.227Z,4.57
2023-04-15T08:30:15.472Z,4.45
2023-04-15T08:32:53.335Z,4.82
2023-04-15T08:35:41.868Z,4.35
2023-04-15T08:38:28.624Z,4.00
2023-04-15T08:41:10.739Z,4.20
2023-04-15T08:43:53.045Z,3.88
2023-04-15T08:46:35.021Z,3.97
2023-04-15T08:49:22.909Z,3.75
2023-04-15T08:52:07.377Z,3.95
2023-04-15T08:54:46.957Z,4.65
2023-04-15T08:57:31.584Z,3.92
2023-04-15T09:00:19.841Z,2.38
2023-04-15T09:03:06.066Z,2.08
2023-04-15T09:05:53.355Z,2.00
2023-04-15T09:08:40.607Z,2.10
2023-04-15T09:11:20.309Z,1.92
2023-04-15T09:14:04.837Z,1.73
2023-04-15T09:17:01.482Z,2.20
2023-04-15T09:19:43.895Z,1.80
2023-04-15T09:22:28.117Z,1.90
2023-04-15T09:25:34.793Z,1.60
2023-04-15T09:28:32.251Z,1.60
2023-04-15T09:31:15.675Z,2.00
2023-04-15T09:34:04.909Z,1.77
2023-04-15T09:36:58.503Z,1.73
2023-04-15T09:39:52.129Z,1.83
2023-04-15T09:42:57.718Z,1.67
2023-04-15T09:45:40.263Z,1.73
2023-04-15T09:48:26.536Z,1.52
2023-04-15T09:51:12.492Z,1.50
2023-04-15T09:54:00.566Z,1.60
2023-04-15T09:56:44.162Z,1.85
2023-04-15T09:59:26.943Z,1.80
2023-04-15T10:02:10.659Z,1.88
2023-04-15T10:05:03.099Z,1.50
2023-04-15T10:07:42.961Z,1.30
2023-04-15T10:10:24.295Z,1.60
2023-04-15T10:13:12.682Z,1.60
2023-04-15T10:16:03.551Z,1.38
2023-04-15T10:19:04.777Z,1.70
2023-04-15T10:21:51.533Z,1.23
2023-04-15T10:24:34.362Z,1.60
2023-04-15T10:27:12.506Z,1.55
2023-04-15T10:30:03.077Z,1.10
2023-04-15T10:32:44.911Z,1.15
2023-04-15T10:35:27.230Z,1.27
2023-04-15T10:38:28.869Z,1.20
2023-04-15T10:41:28.216Z,1.50
2023-04-15T10:44:14.709Z,1.20
2023-04-15T10:46:58.336Z,1.92
2023-04-15T10:49:57.286Z,1.08
2023-04-15T10:52:42.700Z,1.30
2023-04-15T10:55:31.568Z,0.95
2023-04-15T10:58:12.160Z,1.30
2023-04-15T11:00:59.009Z,1.10
2023-04-15T11:03:48.127Z,0.90
2023-04-15T11:06:51.379Z,0.82
2023-04-15T11:09:39.727Z,0.95
2023-04-15T11:12:29.219Z,1.05
2023-04-15T11:15:48.445Z,1.10
2023-04-15T11:18:35.197Z,2.38
2023-04-15T11:21:18.014Z,2.85
2023-04-15T11:24:03.990Z,3.00
2023-04-15T11:26:38.234Z,2.20
2023-04-15T11:29:23.286Z,2.40
2023-04-15T11:32:12.167Z,2.28
2023-04-15T11:34:51.678Z,3.10
2023-04-15T11:37:38.095Z,2.30
2023-04-15T11:40:23.077Z,1.55
2023-04-15T11:43:15.957Z,1.85
2023-04-15T11:46:37.703Z,1.40
2023-04-15T11:49:47.636Z,1.80
2023-04-15T11:52:35.086Z,1.60
2023-04-15T11:55:18.820Z,1.23
2023-04-15T11:58:16.735Z,1.25
2023-04-15T12:00:59.321Z,1.40
2023-04-15T12:03:51.229Z,1.33
2023-04-15T12:06:42.604Z,1.48
2023-04-15T12:09:26.644Z,1.60
2023-04-15T12:12:07.220Z,1.33
2023-04-15T12:15:07.759Z,1.33
2023-04-15T12:17:51.883Z,1.50
2023-04-15T12:21:09.263Z,1.80
2023-04-15T12:24:06.601Z,1.50
2023-04-15T12:27:04.962Z,1.63
2023-04-15T12:29:44.777Z,1.80
2023-04-15T12:32:32.021Z,1.70
2023-04-15T12:35:23.903Z,1.50
2023-04-15T12:38:10.261Z,1.00
2023-04-15T12:41:04.206Z,0.95
2023-04-15T12:43:49.186Z,1.20
2023-04-15T12:46:47.557Z,0.88
2023-04-15T12:49:44.157Z,0.93
2023-04-15T12:52:32.058Z,1.10
2023-04-15T12:55:16.206Z,0.90
2023-04-15T12:58:05.208Z,1.10
2023-04-15T13:00:50.082Z,0.88
2023-04-15T13:03:36.200Z,1.00
2023-04-15T13:06:46.521Z,1.02
2023-04-15T13:09:21.741Z,1.20
2023-04-15T13:12:14.656Z,1.00
2023-04-15T13:15:05.609Z,1.10
2023-04-15T13:17:55.901Z,1.08
2023-04-15T13:20:46.587Z,1.17
2023-04-15T13:23:38.930Z,1.40
2023-04-15T13:26:22.877Z,1.40
2023-04-15T13:29:18.969Z,1.40
2023-04-15T13:32:02.696Z,1.75
2023-04-15T13:34:49.585Z,1.48
2023-04-15T13:37:37.417Z,1.92
2023-04-15T13:40:21.295Z,2.90
2023-04-15T13:43:13.409Z,2.80
2023-04-15T13:45:59.648Z,3.05
2023-04-15T13:48:55.720Z,2.08
2023-04-15T13:51:36.423Z,2.55
2023-04-15T13:54:15.236Z,2.53
2023-04-15T13:56:58.884Z,2.35
2023-04-15T13:59:45.200Z,2.22
2023-04-15T14:02:34.954Z,8.85
2023-04-15T14:05:23.827Z,2.42
2023-04-15T14:08:10.873Z,3.28
2023-04-15T14:11:00.896Z,2.40
2023-04-15T14:13:41.612Z,2.80
2023-04-15T14:16:28.449Z,31.95
2023-04-15T14:19:14.796Z,10.20
2023-04-15T14:21:55.948Z,4.53
2023-04-15T14:24:55.726Z,6.32
2023-04-15T14:27:42.790Z,6.72
2023-04-15T14:30:38.606Z,5.38
2023-04-15T14:33:30.666Z,5.78
2023-04-15T14:36:26.121Z,8.68
2023-04-15T14:39:09.645Z,7.10
2023-04-15T14:41:58.576Z,8.75
2023-04-15T14:48:00.439Z,4.60
2023-04-15T14:51:07.967Z,4.00
2023-04-15T14:54:24.041Z,4.15
2023-04-15T14:57:12.655Z,14.13
2023-04-15T14:59:57.257Z,3.42
2023-04-15T15:02:58.630Z,3.40
2023-04-15T15:05:47.028Z,3.07
2023-04-15T15:08:42.431Z,3.05
2023-04-15T15:11:24.214Z,9.10
2023-04-15T15:14:13.427Z,4.70
2023-04-15T15:17:01.675Z,8.82
2023-04-15T15:19:50.924Z,9.35
2023-04-15T15:22:34.294Z,5.63
2023-04-15T15:25:30.031Z,4.38
2023-04-15T15:28:18.268Z,4.05
2023-04-15T15:31:05.593Z,9.05
2023-04-15T15:33:57.941Z,6.05
2023-04-15T15:36:57.270Z,6.80
2023-04-15T15:39:41.106Z,4.93
2023-04-15T15:42:25.885Z,3.67
2023-04-15T15:45:19.504Z,11.38
2023-04-15T15:51:04.946Z,5.25
2023-04-15T15:54:01.351Z,3.08
2023-04-15T15:56:42.319Z,4.25
2023-04-15T15:59:26.739Z,3.80
2023-04-15T16:02:15.521Z,4.80
2023-04-15T16:05:00.984Z,4.57
2023-04-15T16:07:46.633Z,3.42
2023-04-15T16:10:50.266Z,2.50
2023-04-15T16:13:37.800Z,3.73
2023-04-15T16:16:31.915Z,4.38
2023-04-15T16:19:18.747Z,2.70
2023-04-15T16:21:59.453Z,2.35
2023-04-15T16:24:50.267Z,2.22
2023-04-15T16:27:54.236Z,2.25
2023-04-15T16:30:50.272Z,1.88
2023-04-15T16:33:34.579Z,1.80
2023-04-15T16:36:32.274Z,1.60
2023-04-15T16:39:15.516Z,2.10
2023-04-15T16:42:00.514Z,1.95
2023-04-15T16:44:51.885Z,1.80
2023-04-15T16:47:36.225Z,2.17
2023-04-15T16:50:20.088Z,6.20
2023-04-15T16:53:03.770Z,2.60
2023-04-15T16:55:51.143Z,2.05
2023-04-15T16:58:35.369Z,2.15
2023-04-15T17:01:17.029Z,2.63
2023-04-15T17:03:50.017Z,3.13
2023-04-15T17:06:31.314Z,3.50
2023-04-15T17:09:18.677Z,3.35
2023-04-15T17:11:56.591Z,4.07
2023-04-15T17:14:42.026Z,3.50
2023-04-15T17:17:20.893Z,2.63
2023-04-15T17:20:08.375Z,2.30
2023-04-15T17:22:46.613Z,2.13
2023-04-15T17:25:38.886Z,1.92
2023-04-15T17:28:22.935Z,2.17
2023-04-15T17:31:12.358Z,2.58
2023-04-15T17:34:10.638Z,2.90
2023-04-15T17:36:54.597Z,3.58
2023-04-15T17:39:37.134Z,3.40
2023-04-15T17:42:23.147Z,3.95
2023-04-15T17:45:17.504Z,4.60
2023-04-15T17:48:06.131Z,5.30
2023-04-15T17:50:48.895Z,6.47
2023-04-15T17:53:47.785Z,6.95
2023-04-15T17:56:34.715Z,7.53
2023-04-15T17:59:19.837Z,7.38
2023-04-15T18:02:16.590Z,7.10
2023-04-15T18:05:00.929Z,6.95
2023-04-15T18:07:44.802Z,5.55
2023-04-15T18:10:43.880Z,5.03
2023-04-15T18:13:29.566Z,5.25
2023-04-15T18:16:05.924Z,4.97
2023-04-15T18:18:52.497Z,5.30
2023-04-15T18:21:36.380Z,5.28
2023-04-15T18:24:52.551Z,6.15
2023-04-15T18:27:59.200Z,4.50
2023-04-15T18:31:21.997Z,5.93
2023-04-15T18:34:04.092Z,5.32
2023-04-15T18:37:04.137Z,7.03
2023-04-15T18:39:50.553Z,5.93
2023-04-15T18:45:05.737Z,6.45
2023-04-15T18:47:59.967Z,6.38
2023-04-15T18:50:49.258Z,7.13
2023-04-15T18:53:38.762Z,10.80
2023-04-15T18:56:18.563Z,8.15
2023-04-15T18:59:09.926Z,7.35
2023-04-15T19:02:07.547Z,7.82
2023-04-15T19:04:53.131Z,7.45
2023-04-15T19:07:36.883Z,7.95
2023-04-15T19:10:23.654Z,9.52
2023-04-15T19:13:05.422Z,10.77
2023-04-15T19:15:57.850Z,12.07
2023-04-15T19:18:34.721Z,14.40
2023-04-15T19:21:19.895Z,13.45
2023-04-15T19:24:06.868Z,11.25
2023-04-15T19:29:41.925Z,11.18
2023-04-15T19:32:26.930Z,10.95
2023-04-15T19:35:24.702Z,13.57
2023-04-15T19:38:01.743Z,14.32
2023-04-15T19:40:43.892Z,13.32
2023-04-15T19:43:20.123Z,11.80
2023-04-15T19:46:07.293Z,14.82
2023-04-15T19:48:54.275Z,16.27
2023-04-15T19:54:22.973Z,28.58
2023-04-15T19:57:02.403Z,34.83
2023-04-15T19:59:54.437Z,29.92
2023-04-15T20:02:36.346Z,29.40
2023-04-15T20:05:20.491Z,28.05
2023-04-15T20:08:06.039Z,20.55
2023-04-15T20:10:45.007Z,21.08
2023-04-15T20:13:27.980Z,24.40
2023-04-15T20:16:15.583Z,20.85
2023-04-15T20:18:56.489Z,22.17
2023-04-15T20:21:42.718Z,24.13
2023-04-15T20:24:24.436Z,24.40
2023-04-15T20:27:06.692Z,24.58
2023-04-15T20:29:51.645Z,26.98
2023-04-15T20:32:35.906Z,26.30
2023-04-15T20:35:21.227Z,25.13
2023-04-15T20:38:05.759Z,25.83
2023-04-15T20:40:43.498Z,26.63
2023-04-15T20:43:26.215Z,25.92
2023-04-15T20:46:17.750Z,26.15
2023-04-15T20:49:05.192Z,34.53
2023-04-15T20:51:48.876Z,34.13
2023-04-15T20:54:29.924Z,33.70
2023-04-15T20:57:13.617Z,33.67
2023-04-15T20:59:59.528Z,35.95
2023-04-15T21:02:47.928Z,33.38
2023-04-15T21:05:29.159Z,38.53
2023-04-15T21:08:12.983Z,41.08
2023-04-15T21:10:59.171Z,43.78
2023-04-15T21:13:46.349Z,43.10
2023-04-15T21:16:32.120Z,48.60
2023-04-15T21:19:11.115Z,44.70
2023-04-15T21:21:51.847Z,43.60
2023-04-15T21:24:40.066Z,40.70
2023-04-15T21:27:29.320Z,39.05
2023-04-15T21:30:12.629Z,38.30
2023-04-15T21:32:56.250Z,38.83
2023-04-15T21:35:40.029Z,36.80
2023-04-15T21:38:22.689Z,36.55
2023-04-15T21:41:12.754Z,36.58
2023-04-15T21:43:54.055Z,39.38
2023-04-15T21:46:46.138Z,34.80
2023-04-15T21:49:21.015Z,35.92
2023-04-15T21:52:06.016Z,31.73
2023-04-15T21:54:46.154Z,30.15
2023-04-15T21:57:34.307Z,26.95
2023-04-15T22:00:20.422Z,26.75
2023-04-15T22:03:09.613Z,26.90
2023-04-15T22:05:58.630Z,26.33
2023-04-15T22:08:41.744Z,24.08
2023-04-15T22:14:22.367Z,22.10
2023-04-15T22:17:03.233Z,21.90
2023-04-15T22:19:42.086Z,26.42
2023-04-15T22:22:19.846Z,23.83
2023-04-15T22:25:12.279Z,25.45
2023-04-15T22:27:54.043Z,27.10
2023-04-15T22:30:37.748Z,28.52
2023-04-15T22:33:18.481Z,30.35
2023-04-15T22:36:10.218Z,27.73
2023-04-15T22:38:54.745Z,30.40
2023-04-15T22:41:32.338Z,31.50
2023-04-15T22:44:15.456Z,33.83
2023-04-15T22:47:01.887Z,30.98
2023-04-15T22:49:37.022Z,30.58
2023-04-15T22:52:20.156Z,30.80
2023-04-15T22:55:02.437Z,32.72
2023-04-15T22:57:46.895Z,32.20
2023-04-15T23:00:28.435Z,34.15
2023-04-15T23:03:04.218Z,33.50
2023-04-15T23:05:41.287Z,32.45
2023-04-15T23:08:27.684Z,29.75
2023-04-15T23:11:08.516Z,32.43
2023-04-15T23:13:56.647Z,31.90
2023-04-15T23:16:43.685Z,33.13
2023-04-15T23:19:21.637Z,31.75
2023-04-15T23:22:12.261Z,30.33
2023-04-15T23:24:53.195Z,32.05
2023-04-15T23:27:39.848Z,30.13
2023-04-15T23:30:19.820Z,29.60
2023-04-15T23:33:08.565Z,28.88
2023-04-15T23:35:53.105Z,28.58
2023-04-15T23:38:33.764Z,29.00
2023-04-15T23:41:11.937Z,30.23
2023-04-15T23:43:52.784Z,30.92
2023-04-15T23:46:33.821Z,29.27
2023-04-15T23:49:14.591Z,31.30
2023-04-15T23:51:55.253Z,32.45
2023-04-15T23:54:33.830Z,34.45
2023-04-15T23:57:12.024Z,32.58
2023-04-15T23:59:58.864Z,34.97
